Terminal Aerodrome Forecast
Issued by NWS Cleveland, OH

Home | Current Version | Previous Version | Graphics & Text | Print | Product List | Glossary Off
Versions: 1 2 3 4 5 6 7 8 9 10 11 12 13 14 15 16 17 18 19 20 21 22 23 24 25 26 27 28

000
FTUS41 KCLE 270301 AAA
TAFCLE
TAF AMD
KCLE 270301Z 2703/2806 14003KT P6SM BKN250
     FM271800 02005KT P6SM SCT040 BKN250
     FM280400 17003KT P6SM VCSH BKN060 OVC100=

USA.gov is the U.S. government's official web portal to all federal, state and local government web resources and services.